Time;durP1;ratioP1;P1;durP2;ratioP2;P2;SDS_P1;SDS_P2;PMS_P1;PMS_P2;Temp;Humidity;BMP_temperature;BMP_pressure;BME280_temperature;BME280_humidity;BME280_pressure;Samples;Min_cycle;Max_cycle;Signal;HPM_P1;HPM_P2
2021/06/17 00:00:27;;;;;;;13.13;8.80;;;21.30;99.90;;;;;;5083337;28;20024;-62
2021/06/17 00:02:56;;;;;;;15.90;9.38;;;21.20;99.90;;;;;;5088404;28;20097;-62
2021/06/17 00:05:27;;;;;;;13.43;9.25;;;21.10;99.90;;;;;;5085746;28;20440;-62
2021/06/17 00:07:53;;;;;;;15.30;9.65;;;21.10;99.90;;;;;;5087830;28;20051;-63
2021/06/17 00:10:32;;;;;;;15.25;10.55;;;21.00;99.90;;;;;;5084921;28;20036;-63
2021/06/17 00:13:00;;;;;;;15.07;9.80;;;21.10;99.90;;;;;;5065466;28;20032;-62
2021/06/17 00:15:28;;;;;;;15.98;10.32;;;21.10;99.90;;;;;;5090014;28;20030;-62
2021/06/17 00:17:54;;;;;;;18.63;10.80;;;21.10;99.90;;;;;;5091334;28;20097;-62
2021/06/17 00:20:22;;;;;;;19.90;11.20;;;21.10;99.90;;;;;;5090121;28;20363;-62
2021/06/17 00:22:47;;;;;;;17.77;10.68;;;21.10;99.90;;;;;;5091192;28;20079;-62
2021/06/17 00:25:14;;;;;;;22.15;11.57;;;21.10;99.90;;;;;;5083413;28;20490;-62
2021/06/17 00:27:40;;;;;;;19.52;11.20;;;21.10;99.90;;;;;;5080509;28;20393;-62
2021/06/17 00:30:07;;;;;;;13.80;10.82;;;21.10;99.90;;;;;;5087631;28;20055;-62
2021/06/17 00:32:33;;;;;;;15.05;10.57;;;21.10;99.90;;;;;;5090893;28;20685;-62
2021/06/17 00:34:58;;;;;;;18.92;11.10;;;21.10;99.90;;;;;;5075398;28;20051;-62
2021/06/17 00:37:24;;;;;;;16.83;11.35;;;21.10;99.90;;;;;;5078338;28;20028;-62
2021/06/17 00:39:50;;;;;;;19.20;11.00;;;21.10;99.90;;;;;;5074201;28;20036;-62
2021/06/17 00:42:16;;;;;;;18.90;11.63;;;21.00;99.90;;;;;;5085694;28;20032;-63
2021/06/17 00:44:41;;;;;;;17.10;11.85;;;21.10;99.90;;;;;;5076607;28;20044;-62
2021/06/17 00:47:08;;;;;;;20.08;12.10;;;21.10;99.90;;;;;;5087839;28;20369;-62
2021/06/17 00:49:33;;;;;;;16.42;12.35;;;21.00;99.90;;;;;;5080320;28;20222;-62
2021/06/17 00:52:02;;;;;;;20.08;12.43;;;20.90;99.90;;;;;;5083168;28;20115;-63
2021/06/17 00:54:32;;;;;;;18.60;12.50;;;20.90;99.90;;;;;;5089347;28;20032;-62
2021/06/17 00:57:02;;;;;;;15.73;12.13;;;20.90;99.90;;;;;;5085172;28;20033;-62
2021/06/17 00:59:29;;;;;;;16.90;12.55;;;20.90;99.90;;;;;;5085564;28;20035;-63
2021/06/17 01:01:55;;;;;;;17.23;11.23;;;20.90;99.90;;;;;;5097559;28;20058;-62
2021/06/17 01:04:24;;;;;;;14.25;10.38;;;20.90;99.90;;;;;;5097006;28;20043;-61
2021/06/17 01:06:51;;;;;;;13.55;10.25;;;21.00;99.90;;;;;;5094345;28;20036;-62
2021/06/17 01:09:52;;;;;;;17.38;10.40;;;21.00;99.90;;;;;;5087255;28;20026;-61
2021/06/17 01:12:37;;;;;;;19.23;10.82;;;21.00;99.90;;;;;;5095529;28;20174;-61
2021/06/17 01:15:06;;;;;;;15.35;9.10;;;21.00;99.90;;;;;;5086928;28;20418;-61
2021/06/17 01:17:37;;;;;;;14.85;9.50;;;20.90;99.90;;;;;;5082598;28;20444;-61
2021/06/17 01:20:15;;;;;;;12.48;8.90;;;20.90;99.90;;;;;;5091594;28;20032;-61
2021/06/17 01:22:55;;;;;;;13.77;8.98;;;21.00;99.90;;;;;;5096143;28;20500;-61
2021/06/17 01:25:58;;;;;;;12.00;8.45;;;20.90;99.90;;;;;;5096321;28;20110;-61
2021/06/17 01:28:25;;;;;;;10.30;8.85;;;20.90;99.90;;;;;;5087608;28;20047;-61
2021/06/17 01:30:56;;;;;;;12.25;8.40;;;20.90;99.90;;;;;;5079007;28;20107;-61
2021/06/17 01:33:33;;;;;;;14.63;9.15;;;20.80;99.90;;;;;;5091512;28;20040;-61
2021/06/17 01:36:09;;;;;;;14.30;8.02;;;20.80;99.90;;;;;;5095716;28;20050;-61
2021/06/17 01:38:37;;;;;;;12.70;9.57;;;20.70;99.90;;;;;;5097642;28;20024;-61
2021/06/17 01:41:04;;;;;;;13.95;9.07;;;20.70;99.90;;;;;;5094567;28;20044;-61
2021/06/17 01:43:32;;;;;;;14.40;8.63;;;20.70;99.90;;;;;;5092436;28;20470;-62
2021/06/17 01:45:58;;;;;;;12.48;8.20;;;20.70;99.90;;;;;;5093743;28;20044;-61
2021/06/17 01:48:26;;;;;;;11.10;8.45;;;20.70;99.90;;;;;;5074424;28;20037;-61
2021/06/17 01:50:53;;;;;;;15.60;8.85;;;20.70;99.90;;;;;;5081757;28;20129;-61
2021/06/17 01:53:22;;;;;;;12.93;8.90;;;20.70;99.90;;;;;;5078125;28;20077;-60
2021/06/17 01:55:55;;;;;;;13.77;8.73;;;20.70;99.90;;;;;;5077540;28;20390;-61
2021/06/17 01:58:21;;;;;;;14.07;8.50;;;20.70;99.90;;;;;;5081634;28;20039;-60
2021/06/17 02:00:49;;;;;;;10.70;7.97;;;20.70;99.90;;;;;;5080493;28;20493;-61
2021/06/17 02:03:16;;;;;;;12.88;8.15;;;20.70;99.90;;;;;;5075189;28;20029;-61
2021/06/17 02:05:42;;;;;;;11.10;8.60;;;20.70;99.90;;;;;;5080372;28;20024;-61
2021/06/17 02:08:09;;;;;;;12.93;8.65;;;20.70;99.90;;;;;;5079904;28;20027;-61
2021/06/17 02:10:40;;;;;;;15.35;8.63;;;20.70;99.90;;;;;;5083343;28;20036;-61
2021/06/17 02:13:09;;;;;;;11.40;8.25;;;20.70;99.90;;;;;;5074592;28;20028;-61
2021/06/17 02:15:36;;;;;;;12.98;8.15;;;20.70;99.90;;;;;;5073690;28;20103;-61
2021/06/17 02:18:03;;;;;;;15.88;8.63;;;20.70;99.90;;;;;;5066143;28;20020;-61
2021/06/17 02:20:29;;;;;;;12.43;8.82;;;20.60;99.90;;;;;;5073469;28;20086;-61
2021/06/17 02:22:59;;;;;;;12.95;8.57;;;20.60;99.90;;;;;;5077315;28;20036;-61
2021/06/17 02:25:25;;;;;;;14.50;8.70;;;20.50;99.90;;;;;;5075322;28;20036;-61
2021/06/17 02:27:59;;;;;;;13.60;8.70;;;20.50;99.90;;;;;;5072824;28;20047;-61
2021/06/17 02:30:29;;;;;;;14.05;9.25;;;20.60;99.90;;;;;;5079933;28;20120;-62
2021/06/17 02:32:59;;;;;;;14.75;9.18;;;20.60;99.90;;;;;;5072727;28;20086;-61
2021/06/17 02:35:27;;;;;;;14.57;9.98;;;20.60;99.90;;;;;;5072800;28;20478;-61
2021/06/17 02:37:59;;;;;;;12.73;9.52;;;20.70;99.90;;;;;;5072773;28;20020;-61
2021/06/17 02:40:27;;;;;;;11.63;9.30;;;20.60;99.90;;;;;;5083414;28;20025;-61
2021/06/17 02:42:54;;;;;;;14.10;9.73;;;20.60;99.90;;;;;;5072290;28;20040;-61
2021/06/17 02:45:24;;;;;;;13.70;9.32;;;20.60;99.90;;;;;;5083132;28;20059;-62
2021/06/17 02:47:50;;;;;;;11.85;9.18;;;20.60;99.90;;;;;;5058996;28;20028;-62
2021/06/17 02:50:17;;;;;;;13.38;9.55;;;20.60;99.90;;;;;;5079760;28;20080;-62
2021/06/17 02:52:42;;;;;;;13.20;9.32;;;20.60;99.90;;;;;;5082526;28;20505;-61
2021/06/17 02:55:09;;;;;;;13.73;9.75;;;20.60;99.90;;;;;;5079800;28;20055;-62
2021/06/17 02:57:55;;;;;;;12.55;9.65;;;20.50;99.90;;;;;;5071767;28;20035;-61
2021/06/17 03:00:25;;;;;;;15.65;9.95;;;20.50;99.90;;;;;;5083413;28;20065;-60
2021/06/17 03:02:54;;;;;;;13.05;10.40;;;20.50;99.90;;;;;;5074634;28;20024;-61
2021/06/17 03:05:24;;;;;;;13.65;9.68;;;20.50;99.90;;;;;;5083384;28;20032;-61
2021/06/17 03:07:58;;;;;;;13.88;9.68;;;20.50;99.90;;;;;;5087862;28;20028;-60
2021/06/17 03:10:25;;;;;;;12.18;8.90;;;20.40;99.90;;;;;;5081845;28;20028;-62
2021/06/17 03:12:53;;;;;;;12.85;9.05;;;20.40;99.90;;;;;;5075847;28;20035;-62
2021/06/17 03:15:20;;;;;;;11.13;8.93;;;20.40;99.90;;;;;;5081198;28;20031;-62
2021/06/17 03:17:50;;;;;;;14.75;9.32;;;20.40;99.90;;;;;;5072324;28;20078;-62
2021/06/17 03:20:17;;;;;;;14.68;9.82;;;20.40;99.90;;;;;;5072315;28;20028;-62
2021/06/17 03:22:49;;;;;;;12.48;9.50;;;20.40;99.90;;;;;;5071422;28;20041;-62
2021/06/17 03:25:18;;;;;;;14.23;9.45;;;20.30;99.90;;;;;;5082482;28;20443;-61
2021/06/17 03:27:48;;;;;;;14.60;9.45;;;20.30;99.90;;;;;;5071202;28;20025;-61
2021/06/17 03:30:17;;;;;;;15.80;9.20;;;20.30;99.90;;;;;;5073355;28;20044;-61
2021/06/17 03:32:46;;;;;;;13.15;9.38;;;20.30;99.90;;;;;;5069839;28;20044;-62
2021/06/17 03:35:12;;;;;;;14.50;10.13;;;20.30;99.90;;;;;;5083737;28;20021;-61
2021/06/17 03:37:39;;;;;;;13.15;10.15;;;20.30;99.90;;;;;;5070982;28;20031;-62
2021/06/17 03:40:05;;;;;;;13.60;8.98;;;20.40;99.90;;;;;;5075987;28;20073;-62
2021/06/17 03:42:32;;;;;;;15.98;9.45;;;20.40;99.90;;;;;;5071470;28;20036;-62
2021/06/17 03:44:59;;;;;;;12.65;9.73;;;20.40;99.90;;;;;;5072295;28;20475;-61
2021/06/17 03:47:27;;;;;;;11.35;9.10;;;20.40;99.90;;;;;;5070820;28;20027;-62
2021/06/17 03:49:54;;;;;;;12.18;8.98;;;20.40;99.90;;;;;;5079202;28;20029;-63
2021/06/17 03:52:20;;;;;;;12.85;9.40;;;20.40;99.90;;;;;;5080355;28;20032;-63
2021/06/17 03:54:48;;;;;;;15.85;9.27;;;20.40;99.90;;;;;;5071586;28;20119;-62
2021/06/17 03:57:18;;;;;;;13.88;9.55;;;20.30;99.90;;;;;;5077706;28;20111;-62
2021/06/17 03:59:45;;;;;;;16.13;10.55;;;20.40;99.90;;;;;;5075439;28;20028;-62
2021/06/17 04:02:12;;;;;;;12.68;9.95;;;20.40;99.90;;;;;;5077218;28;20064;-62
2021/06/17 04:04:40;;;;;;;15.85;11.00;;;20.40;99.90;;;;;;5069852;28;20108;-63
2021/06/17 04:07:12;;;;;;;15.13;9.60;;;20.30;99.90;;;;;;5065940;28;20024;-62
2021/06/17 04:09:39;;;;;;;14.77;9.50;;;20.40;99.90;;;;;;5084614;28;20482;-62
2021/06/17 04:12:12;;;;;;;24.38;11.40;;;20.40;99.90;;;;;;5081541;28;20364;-62
2021/06/17 04:14:44;;;;;;;17.25;9.60;;;20.40;99.90;;;;;;5083044;28;20039;-63
2021/06/17 04:17:13;;;;;;;14.73;10.63;;;20.30;99.90;;;;;;5071232;28;20048;-63
2021/06/17 04:19:42;;;;;;;12.90;10.43;;;20.30;99.90;;;;;;5080392;28;20031;-63
2021/06/17 04:22:09;;;;;;;16.23;10.90;;;20.30;99.90;;;;;;5071467;28;20032;-63
2021/06/17 04:24:40;;;;;;;17.02;10.20;;;20.30;99.90;;;;;;5079258;28;20028;-62
2021/06/17 04:27:07;;;;;;;14.38;10.40;;;20.30;99.90;;;;;;5057257;28;20024;-62
2021/06/17 04:29:37;;;;;;;12.65;10.23;;;20.30;99.90;;;;;;5071255;28;20057;-62
2021/06/17 04:32:05;;;;;;;16.75;10.80;;;20.30;99.90;;;;;;5073646;28;20032;-62
2021/06/17 04:34:32;;;;;;;12.90;10.18;;;20.40;99.90;;;;;;5071618;28;20173;-61
2021/06/17 04:36:58;;;;;;;16.20;10.02;;;20.50;99.90;;;;;;5068500;28;20489;-61
2021/06/17 04:39:27;;;;;;;15.75;10.48;;;20.50;99.90;;;;;;5072282;28;20052;-62
2021/06/17 04:41:54;;;;;;;18.75;10.93;;;20.40;99.90;;;;;;5071614;28;20046;-62
2021/06/17 04:44:21;;;;;;;16.75;12.77;;;20.40;99.90;;;;;;5072948;28;20028;-62
2021/06/17 04:46:48;;;;;;;17.65;11.02;;;20.40;99.90;;;;;;5073990;28;20374;-62
2021/06/17 04:49:16;;;;;;;14.25;10.82;;;20.30;99.90;;;;;;5077590;28;20032;-61
2021/06/17 04:51:42;;;;;;;16.70;10.93;;;20.40;99.90;;;;;;5070366;28;20024;-63
2021/06/17 04:54:09;;;;;;;15.27;11.40;;;20.40;99.90;;;;;;5077120;28;20482;-62
2021/06/17 04:56:35;;;;;;;16.15;12.10;;;20.30;99.90;;;;;;5075594;28;20029;-62
2021/06/17 04:59:01;;;;;;;16.15;11.93;;;20.40;99.90;;;;;;5068225;28;20102;-62
2021/06/17 05:01:27;;;;;;;17.90;12.50;;;20.40;99.90;;;;;;5070424;28;20056;-62
2021/06/17 05:03:53;;;;;;;21.05;12.65;;;20.30;99.90;;;;;;5077986;28;20036;-62
2021/06/17 05:06:19;;;;;;;18.90;12.43;;;20.40;99.90;;;;;;5071137;28;20048;-62
2021/06/17 05:11:29;;;;;;;15.18;12.30;;;20.30;99.90;;;;;;5076043;28;20032;-62
2021/06/17 05:13:55;;;;;;;19.40;12.38;;;20.30;99.90;;;;;;5079595;28;20106;-62
2021/06/17 05:16:21;;;;;;;17.35;12.27;;;20.30;99.90;;;;;;5075145;28;20382;-62
2021/06/17 05:18:47;;;;;;;20.13;11.85;;;20.30;99.90;;;;;;5075584;28;20035;-62
2021/06/17 05:21:13;;;;;;;18.27;13.15;;;20.30;99.90;;;;;;5070594;28;20122;-63
2021/06/17 05:23:40;;;;;;;15.77;11.90;;;20.30;99.90;;;;;;5069321;28;20032;-62
2021/06/17 05:26:07;;;;;;;19.85;12.98;;;20.30;99.90;;;;;;5070535;28;20052;-62
2021/06/17 05:28:34;;;;;;;16.63;12.40;;;20.30;99.90;;;;;;5069768;28;20035;-62
2021/06/17 05:31:02;;;;;;;19.08;14.02;;;20.30;99.90;;;;;;5070880;28;20101;-62
2021/06/17 05:33:30;;;;;;;22.63;14.45;;;20.30;99.90;;;;;;5070584;28;20734;-62
2021/06/17 05:35:57;;;;;;;22.05;13.15;;;20.30;99.90;;;;;;5073679;28;20505;-62
2021/06/17 05:38:24;;;;;;;28.98;13.75;;;20.40;99.90;;;;;;5074684;28;20089;-62
2021/06/17 05:40:51;;;;;;;19.10;13.15;;;20.30;99.90;;;;;;5085032;28;20498;-61
2021/06/17 05:43:18;;;;;;;21.42;14.45;;;20.40;99.90;;;;;;5076803;28;20028;-62
2021/06/17 05:45:44;;;;;;;26.85;16.90;;;20.40;99.90;;;;;;5060203;28;20041;-62
2021/06/17 05:48:10;;;;;;;26.02;16.00;;;20.50;99.90;;;;;;5077457;28;20381;-62
2021/06/17 05:50:36;;;;;;;19.10;14.45;;;20.50;99.90;;;;;;5078036;28;20052;-62
2021/06/17 05:53:02;;;;;;;22.02;14.40;;;20.50;99.90;;;;;;5075653;28;20055;-61
2021/06/17 05:55:28;;;;;;;21.08;15.13;;;20.60;99.90;;;;;;5072618;28;20447;-62
2021/06/17 05:57:54;;;;;;;21.45;15.50;;;20.60;99.90;;;;;;5085807;28;20120;-61
2021/06/17 06:00:20;;;;;;;24.88;15.93;;;20.60;99.90;;;;;;5074048;28;20478;-61
2021/06/17 06:02:45;;;;;;;32.33;16.90;;;20.60;99.90;;;;;;5085524;28;20038;-60
2021/06/17 06:05:11;;;;;;;24.50;15.85;;;20.70;99.90;;;;;;5074846;28;20382;-61
2021/06/17 06:07:39;;;;;;;34.78;17.77;;;20.60;99.90;;;;;;5084780;28;20032;-61
2021/06/17 06:10:07;;;;;;;26.30;15.65;;;20.70;99.90;;;;;;5074026;28;20028;-61
2021/06/17 06:12:33;;;;;;;26.13;16.58;;;20.70;99.90;;;;;;5073338;28;20059;-61
2021/06/17 06:14:58;;;;;;;29.10;17.13;;;20.70;99.90;;;;;;5084365;28;20052;-61
2021/06/17 06:17:24;;;;;;;24.77;16.45;;;20.70;99.90;;;;;;5072501;28;20123;-61
2021/06/17 06:19:50;;;;;;;27.50;16.77;;;20.80;99.90;;;;;;5079410;28;20074;-60
2021/06/17 06:22:16;;;;;;;27.75;16.70;;;20.80;99.90;;;;;;5072965;28;20439;-61
2021/06/17 06:24:42;;;;;;;27.70;18.20;;;20.80;99.90;;;;;;5075348;28;20067;-62
2021/06/17 06:27:09;;;;;;;24.05;16.80;;;20.80;99.90;;;;;;5075511;28;20040;-62
2021/06/17 06:29:35;;;;;;;30.65;18.13;;;20.70;99.90;;;;;;5085288;28;20056;-61
2021/06/17 06:32:02;;;;;;;28.63;17.27;;;20.80;99.90;;;;;;5072402;28;20086;-61
2021/06/17 06:34:28;;;;;;;33.55;21.30;;;20.80;99.90;;;;;;5060799;28;20044;-62
2021/06/17 06:36:53;;;;;;;31.25;18.88;;;20.90;99.90;;;;;;5078969;28;20492;-61
2021/06/17 06:39:20;;;;;;;33.17;19.17;;;20.80;99.90;;;;;;5082494;28;20043;-61
2021/06/17 06:41:46;;;;;;;55.08;19.30;;;20.90;99.90;;;;;;5089229;28;20043;-61
2021/06/17 06:44:12;;;;;;;30.52;18.13;;;20.90;99.90;;;;;;5072256;28;20111;-61
2021/06/17 06:46:39;;;;;;;34.25;20.23;;;20.90;99.90;;;;;;5082058;28;20082;-62
2021/06/17 06:49:05;;;;;;;31.95;19.15;;;20.90;99.90;;;;;;5081914;28;20016;-62
2021/06/17 06:51:35;;;;;;;32.45;20.48;;;20.90;99.90;;;;;;5075433;28;20032;-62
2021/06/17 06:54:18;;;;;;;38.35;20.50;;;20.90;99.90;;;;;;5073430;28;20474;-62
2021/06/17 06:56:46;;;;;;;40.58;20.20;;;20.90;99.90;;;;;;5080525;28;20378;-62
2021/06/17 06:59:11;;;;;;;29.98;19.90;;;20.90;99.90;;;;;;5073390;28;20042;-62
2021/06/17 07:01:37;;;;;;;39.05;20.80;;;20.80;99.90;;;;;;5079988;28;20363;-62
2021/06/17 07:04:05;;;;;;;29.58;21.85;;;20.80;99.90;;;;;;5071036;28;20036;-62
2021/06/17 07:06:31;;;;;;;28.98;22.00;;;20.70;99.90;;;;;;5072180;28;20082;-62
2021/06/17 07:08:56;;;;;;;34.30;25.25;;;20.30;99.90;;;;;;5071629;28;20048;-61
2021/06/17 07:11:22;;;;;;;38.15;26.73;;;20.00;99.90;;;;;;5073915;28;20020;-62
2021/06/17 07:13:49;;;;;;;37.95;27.23;;;19.80;99.90;;;;;;5076275;28;20398;-62
2021/06/17 07:16:14;;;;;;;34.63;25.83;;;19.60;99.90;;;;;;5072539;28;20508;-62
2021/06/17 07:18:40;;;;;;;35.20;26.27;;;19.50;99.90;;;;;;5071338;28;20024;-61
2021/06/17 07:21:07;;;;;;;42.17;25.75;;;19.40;99.90;;;;;;5073145;28;20095;-62
2021/06/17 07:23:34;;;;;;;36.38;25.73;;;19.40;99.90;;;;;;5069774;28;20132;-61
2021/06/17 07:26:00;;;;;;;31.13;24.98;;;19.20;99.90;;;;;;5076355;28;20043;-61
2021/06/17 07:28:26;;;;;;;37.95;24.52;;;19.20;99.90;;;;;;5072931;28;20040;-62
2021/06/17 07:30:52;;;;;;;44.25;23.98;;;19.30;99.90;;;;;;5071145;28;20065;-61
2021/06/17 07:33:17;;;;;;;37.85;23.83;;;19.30;99.90;;;;;;5071543;28;20029;-61
2021/06/17 07:35:43;;;;;;;46.47;24.48;;;19.20;99.90;;;;;;5084747;28;20040;-61
2021/06/17 07:38:09;;;;;;;54.30;24.40;;;19.20;99.90;;;;;;5077203;28;20032;-62
2021/06/17 07:40:35;;;;;;;37.75;25.73;;;19.20;99.90;;;;;;5072631;28;20039;-61
2021/06/17 07:43:00;;;;;;;44.33;27.10;;;19.10;99.90;;;;;;5075106;28;20032;-61
2021/06/17 07:45:31;;;;;;;45.22;26.75;;;19.10;99.90;;;;;;5072176;28;20391;-62
2021/06/17 07:47:57;;;;;;;43.95;27.98;;;19.00;99.90;;;;;;5067085;28;20489;-62
2021/06/17 07:50:23;;;;;;;41.03;27.92;;;19.10;99.90;;;;;;5074811;28;20032;-62
2021/06/17 07:52:50;;;;;;;38.70;27.40;;;19.00;99.90;;;;;;5083750;28;20036;-62
2021/06/17 07:55:15;;;;;;;35.88;27.45;;;19.00;99.90;;;;;;5070937;28;20020;-62
2021/06/17 07:57:41;;;;;;;39.30;26.60;;;18.90;99.90;;;;;;5076132;28;20036;-61
2021/06/17 08:00:08;;;;;;;40.08;27.13;;;18.80;99.90;;;;;;5083215;28;20035;-62
2021/06/17 08:02:34;;;;;;;41.47;23.40;;;18.80;99.90;;;;;;5076038;28;20032;-62
2021/06/17 08:04:59;;;;;;;42.83;23.95;;;18.80;99.90;;;;;;5070640;28;20402;-62
2021/06/17 08:07:25;;;;;;;38.38;22.65;;;18.80;99.90;;;;;;5077633;28;20032;-62
2021/06/17 08:09:51;;;;;;;39.60;21.85;;;18.80;99.90;;;;;;5071902;28;20036;-61
2021/06/17 08:12:17;;;;;;;38.10;21.88;;;18.80;99.90;;;;;;5071360;28;20425;-61
2021/06/17 08:14:43;;;;;;;35.13;21.30;;;18.80;99.90;;;;;;5069145;28;20382;-62
2021/06/17 08:17:09;;;;;;;34.58;20.23;;;18.80;99.90;;;;;;5071046;28;20021;-62
2021/06/17 08:19:35;;;;;;;37.20;22.25;;;18.90;99.90;;;;;;5069149;28;20032;-62
2021/06/17 08:22:04;;;;;;;37.80;21.75;;;18.90;99.90;;;;;;5077349;28;20483;-61
2021/06/17 08:24:32;;;;;;;36.15;22.58;;;18.90;99.90;;;;;;5070487;28;20371;-61
2021/06/17 08:26:58;;;;;;;33.20;22.48;;;18.90;99.90;;;;;;5071074;28;20028;-62
2021/06/17 08:29:24;;;;;;;34.33;23.88;;;18.80;99.90;;;;;;5070283;28;20056;-62
2021/06/17 08:31:50;;;;;;;38.65;24.45;;;18.90;99.90;;;;;;5070683;28;20035;-62
2021/06/17 08:34:16;;;;;;;41.53;26.48;;;18.80;99.90;;;;;;5068691;28;20036;-61
2021/06/17 08:36:42;;;;;;;49.38;26.65;;;18.80;99.90;;;;;;5071852;28;20024;-61
2021/06/17 08:39:08;;;;;;;45.72;25.83;;;18.90;99.90;;;;;;5079211;28;20024;-62
2021/06/17 08:41:34;;;;;;;46.67;26.60;;;18.90;99.90;;;;;;5070943;28;20078;-62
2021/06/17 08:44:01;;;;;;;43.88;29.70;;;18.90;99.90;;;;;;5072940;28;20027;-62
2021/06/17 08:46:26;;;;;;;37.60;28.30;;;18.90;99.90;;;;;;5072282;28;20052;-61
2021/06/17 08:48:52;;;;;;;41.42;26.67;;;18.80;99.90;;;;;;5080518;28;20067;-62
2021/06/17 08:51:19;;;;;;;34.95;24.02;;;18.90;99.90;;;;;;5077218;28;20107;-61
2021/06/17 08:53:48;;;;;;;42.67;24.13;;;18.90;99.90;;;;;;5080696;28;20033;-62
2021/06/17 08:56:14;;;;;;;39.13;21.65;;;18.90;99.90;;;;;;5079080;28;20073;-61
2021/06/17 08:58:40;;;;;;;39.50;20.63;;;18.90;99.90;;;;;;5070027;28;20025;-61
2021/06/17 09:01:10;;;;;;;46.05;21.77;;;18.90;99.90;;;;;;5069587;28;20071;-61
2021/06/17 09:03:42;;;;;;;24.08;16.73;;;18.90;99.90;;;;;;5069925;28;20024;-61
2021/06/17 09:06:08;;;;;;;23.08;14.57;;;19.00;99.90;;;;;;5080362;28;20036;-60
2021/06/17 09:08:35;;;;;;;33.38;14.98;;;18.90;99.90;;;;;;5077928;28;20174;-61
2021/06/17 09:11:16;;;;;;;21.83;14.13;;;19.00;99.90;;;;;;5074461;28;20514;-62
2021/06/17 09:13:42;;;;;;;29.83;14.88;;;19.00;99.90;;;;;;5062353;28;20456;-62
2021/06/17 09:16:07;;;;;;;25.52;14.48;;;18.90;99.90;;;;;;5074350;28;20037;-62
2021/06/17 09:18:35;;;;;;;27.40;17.20;;;18.90;99.90;;;;;;5073575;28;20052;-63
2021/06/17 09:21:06;;;;;;;28.13;18.77;;;18.80;99.90;;;;;;5074449;28;20493;-62
2021/06/17 09:23:44;;;;;;;24.92;20.25;;;18.80;99.90;;;;;;5076353;28;20040;-62
2021/06/17 09:26:13;;;;;;;23.30;18.08;;;18.80;99.90;;;;;;5074261;28;20542;-62
2021/06/17 09:29:04;;;;;;;20.50;15.25;;;18.70;99.90;;;;;;5072536;28;20032;-62
2021/06/17 09:31:36;;;;;;;18.75;14.52;;;18.50;99.90;;;;;;5071191;28;20047;-62
2021/06/17 09:34:06;;;;;;;19.23;13.80;;;18.40;99.90;;;;;;5073816;28;20099;-62
2021/06/17 09:36:33;;;;;;;24.30;14.15;;;18.40;99.90;;;;;;5074258;28;20052;-61
2021/06/17 09:39:09;;;;;;;20.52;15.05;;;18.30;99.90;;;;;;5073775;28;20036;-61
2021/06/17 09:41:44;;;;;;;21.30;14.90;;;18.30;99.90;;;;;;5072593;28;20552;-61
2021/06/17 09:44:31;;;;;;;21.75;15.70;;;18.20;99.90;;;;;;5070683;28;20037;-60
2021/06/17 09:47:25;;;;;;;21.88;14.40;;;18.20;99.90;;;;;;5074223;28;20033;-61
2021/06/17 09:49:52;;;;;;;21.35;16.05;;;18.20;99.90;;;;;;5070642;28;20035;-61
2021/06/17 09:52:18;;;;;;;22.20;17.05;;;18.30;99.90;;;;;;5073706;28;20037;-61
2021/06/17 09:54:46;;;;;;;25.73;19.17;;;18.40;99.90;;;;;;5073309;28;20055;-61
2021/06/17 09:57:15;;;;;;;28.10;20.67;;;18.40;99.90;;;;;;5074144;28;20035;-62
2021/06/17 09:59:47;;;;;;;27.73;21.00;;;18.40;99.90;;;;;;5073302;28;20025;-61
2021/06/17 10:02:21;;;;;;;29.33;22.40;;;18.40;99.90;;;;;;5074014;28;20040;-61
2021/06/17 10:04:48;;;;;;;29.58;23.48;;;18.40;99.90;;;;;;5072787;28;20048;-61
2021/06/17 10:07:17;;;;;;;31.55;23.55;;;18.40;99.90;;;;;;5074522;28;20024;-60
2021/06/17 10:09:44;;;;;;;31.48;22.92;;;18.40;99.90;;;;;;5072587;28;20477;-61
2021/06/17 10:12:10;;;;;;;33.83;23.45;;;18.40;99.90;;;;;;5073378;28;20386;-62
2021/06/17 10:14:36;;;;;;;33.60;23.58;;;18.40;99.90;;;;;;5075259;28;20038;-62
2021/06/17 10:17:04;;;;;;;29.83;22.17;;;18.40;99.90;;;;;;5087158;28;20044;-61
2021/06/17 10:19:32;;;;;;;27.98;21.85;;;18.40;99.90;;;;;;5072448;28;20093;-62
2021/06/17 10:21:58;;;;;;;30.38;22.00;;;18.50;99.90;;;;;;5082037;28;20028;-61
2021/06/17 10:24:27;;;;;;;30.40;20.67;;;18.50;99.90;;;;;;5070498;28;20397;-62
2021/06/17 10:26:57;;;;;;;28.30;20.90;;;18.50;99.90;;;;;;5073031;28;20368;-61
2021/06/17 10:29:39;;;;;;;28.90;19.90;;;18.50;99.90;;;;;;5077224;28;20056;-61
2021/06/17 10:32:07;;;;;;;23.60;20.08;;;18.50;99.90;;;;;;5073245;28;20082;-62
2021/06/17 10:34:38;;;;;;;24.23;20.25;;;18.40;99.90;;;;;;5072543;28;20029;-62
2021/06/17 10:37:16;;;;;;;25.13;20.15;;;18.50;99.90;;;;;;5073193;28;20042;-62
2021/06/17 10:39:51;;;;;;;26.70;20.75;;;18.50;99.90;;;;;;5059282;28;20061;-61
2021/06/17 10:42:25;;;;;;;24.48;19.42;;;18.60;99.90;;;;;;5072955;28;20027;-62
2021/06/17 10:45:06;;;;;;;27.52;21.27;;;18.70;99.90;;;;;;5077495;28;20119;-62
2021/06/17 10:47:42;;;;;;;24.20;19.60;;;18.70;99.90;;;;;;5064269;28;20116;-62
2021/06/17 10:50:32;;;;;;;24.85;21.17;;;18.80;99.90;;;;;;5071984;28;20032;-62
2021/06/17 10:53:15;;;;;;;23.38;18.92;;;18.80;99.90;;;;;;5064756;28;20033;-62
2021/06/17 10:55:57;;;;;;;17.17;15.48;;;18.90;99.90;;;;;;5069535;28;20465;-62
2021/06/17 10:58:40;;;;;;;17.42;14.88;;;18.90;99.90;;;;;;5077191;28;20033;-61
2021/06/17 11:01:37;;;;;;;17.42;14.32;;;19.00;99.90;;;;;;5068659;28;20071;-61
2021/06/17 11:04:07;;;;;;;16.05;12.88;;;19.00;99.90;;;;;;5079120;28;20396;-61
2021/06/17 11:06:49;;;;;;;15.00;13.43;;;19.00;99.90;;;;;;5072435;28;20119;-61
2021/06/17 11:09:57;;;;;;;13.07;11.40;;;19.00;99.90;;;;;;5073435;28;20024;-62
2021/06/17 11:12:27;;;;;;;14.95;10.75;;;19.20;99.90;;;;;;5072191;28;20082;-62
2021/06/17 11:14:57;;;;;;;11.50;10.27;;;19.20;99.90;;;;;;5080964;28;20032;-62
2021/06/17 11:17:29;;;;;;;12.85;10.23;;;19.50;99.90;;;;;;5078459;28;20029;-62
2021/06/17 11:20:05;;;;;;;11.13;8.20;;;19.80;99.90;;;;;;5060611;28;20071;-62
2021/06/17 11:22:41;;;;;;;11.55;8.48;;;20.00;99.90;;;;;;5071745;28;20056;-62
2021/06/17 11:25:28;;;;;;;12.23;8.50;;;20.20;99.90;;;;;;5071371;28;20044;-61
2021/06/17 11:28:00;;;;;;;9.88;7.93;;;20.20;99.90;;;;;;5066658;28;20032;-61
2021/06/17 11:30:38;;;;;;;8.95;6.35;;;20.20;99.90;;;;;;5083695;28;20123;-62
2021/06/17 11:35:47;;;;;;;7.45;5.55;;;20.40;99.90;;;;;;5064428;28;20036;-62
2021/06/17 11:38:20;;;;;;;11.27;6.97;;;20.40;99.90;;;;;;5071239;28;20043;-62
2021/06/17 11:40:46;;;;;;;9.57;7.22;;;20.40;99.90;;;;;;5071319;28;20028;-62
2021/06/17 11:43:12;;;;;;;7.63;6.22;;;20.30;99.90;;;;;;5056312;28;20482;-63
2021/06/17 11:45:38;;;;;;;16.13;6.38;;;20.30;99.90;;;;;;5075282;28;20025;-62
2021/06/17 11:48:08;;;;;;;8.88;5.90;;;20.40;99.90;;;;;;5077519;28;20079;-62
2021/06/17 11:50:51;;;;;;;10.18;6.45;;;20.50;99.90;;;;;;5070935;28;20097;-62
2021/06/17 11:53:26;;;;;;;7.55;4.70;;;20.50;99.90;;;;;;5071551;28;20043;-62
2021/06/17 11:55:55;;;;;;;8.88;6.10;;;20.40;99.90;;;;;;5067151;28;20113;-62
2021/06/17 11:58:26;;;;;;;21.80;8.82;;;20.30;99.90;;;;;;5071549;28;20081;-62
2021/06/17 12:00:51;;;;;;;10.70;6.38;;;20.20;99.90;;;;;;5070765;28;20496;-62
2021/06/17 12:03:23;;;;;;;10.52;6.75;;;20.20;99.90;;;;;;5073072;28;20036;-62
2021/06/17 12:05:50;;;;;;;7.10;5.78;;;20.20;99.90;;;;;;5081576;28;20040;-62
2021/06/17 12:08:16;;;;;;;13.02;6.32;;;20.10;99.90;;;;;;5071185;28;20059;-60
2021/06/17 12:10:42;;;;;;;18.15;6.30;;;20.30;99.90;;;;;;5069540;28;20025;-61
2021/06/17 12:13:10;;;;;;;17.52;6.35;;;20.30;99.90;;;;;;5071326;28;20032;-61
2021/06/17 12:15:41;;;;;;;11.32;5.60;;;20.50;99.90;;;;;;5060223;28;20036;-61
2021/06/17 12:18:17;;;;;;;17.50;6.00;;;20.60;99.90;;;;;;5061305;28;20024;-61
2021/06/17 12:20:47;;;;;;;17.63;5.80;;;20.60;99.90;;;;;;5063262;28;20071;-61
2021/06/17 12:23:20;;;;;;;26.60;6.65;;;20.80;99.90;;;;;;5071286;28;20454;-61
2021/06/17 12:26:01;;;;;;;11.77;5.75;;;20.90;99.90;;;;;;5065867;28;20032;-61
2021/06/17 12:28:27;;;;;;;19.48;7.25;;;20.90;99.90;;;;;;5062927;28;20028;-61
2021/06/17 12:30:55;;;;;;;18.88;6.93;;;20.70;99.90;;;;;;5070105;28;20538;-61
2021/06/17 12:33:24;;;;;;;14.15;6.10;;;20.60;99.90;;;;;;5070829;28;20107;-61
2021/06/17 12:36:03;;;;;;;14.48;6.03;;;20.50;99.90;;;;;;5070429;28;20047;-61
2021/06/17 12:38:32;;;;;;;27.15;5.88;;;20.60;99.90;;;;;;5073486;28;20115;-62
2021/06/17 12:41:18;;;;;;;23.80;6.13;;;20.80;99.90;;;;;;5070401;28;20025;-62
2021/06/17 12:43:50;;;;;;;9.20;4.90;;;20.70;99.90;;;;;;5057084;28;20112;-62
2021/06/17 12:46:27;;;;;;;9.27;5.95;;;20.80;99.90;;;;;;5070081;28;20863;-62